Terminal Aerodrome Forecast
Issued by NWS Newport/Morehead City, NC

Home | Current Version | Previous Version | Text Only | Print | Product List | Glossary On
Versions: 1 2 3 4 5 6 7 8 9 10 11 12 13 14 15
000
FTUS42 KMHX 220540
TAFEWN
TAF
KEWN 220540Z 2206/2306 00000KT 3SM BR FEW050
      TEMPO 2206/2209 1SM BR SCT005
     FM220900 00000KT 2SM BR SCT003
      TEMPO 2209/2213 1/2SM FG BKN003
     FM221300 00000KT 1SM BR BKN009
     FM221400 00000KT P6SM FEW250=

USA.gov is the U.S. government's official web portal to all federal, state and local government web resources and services.